Time,TemperatureF,DewpointF,PressureIn,WindDirection,WindDirectionDegrees,WindSpeedMPH,WindSpeedGustMPH,Humidity,HourlyPrecipIn,Conditions,Clouds,dailyrainin,SoftwareType,DateUTC
2013-08-30 00:12:00,74.0,65.0,29.71,NNW,327,0.0,0.0,73,0.00,,,0.00,,2013-08-30 05:12:00,
2013-08-30 00:23:00,73.0,65.0,29.71,NNW,327,0.0,0.0,75,0.00,,,0.00,,2013-08-30 05:23:00,
2013-08-30 00:42:00,73.0,65.0,29.72,NNW,327,0.0,0.0,76,0.00,,,0.00,,2013-08-30 05:42:00,
2013-08-30 00:52:00,72.0,64.0,29.72,NNW,327,0.0,0.0,77,0.00,,,0.00,,2013-08-30 05:52:00,
2013-08-30 01:12:00,71.0,64.0,29.72,NNW,327,0.0,0.0,79,0.00,,,0.00,,2013-08-30 06:12:00,
2013-08-30 01:22:00,70.0,63.0,29.72,NNW,327,0.0,0.0,79,0.00,,,0.00,,2013-08-30 06:22:00,
2013-08-30 01:42:00,70.0,64.0,29.72,NNW,327,0.0,1.0,81,0.00,,,0.00,,2013-08-30 06:42:00,
2013-08-30 01:53:00,69.0,63.0,29.73,NNW,327,0.0,0.0,81,0.00,,,0.00,,2013-08-30 06:53:00,
2013-08-30 02:12:00,69.0,63.0,29.73,NNW,327,0.0,0.0,82,0.00,,,0.00,,2013-08-30 07:12:00,
2013-08-30 02:21:00,68.0,62.0,29.73,NNW,327,0.0,0.0,82,0.00,,,0.00,,2013-08-30 07:21:00,
2013-08-30 02:43:00,67.0,62.0,29.74,SW,221,0.0,2.0,83,0.00,,,0.00,,2013-08-30 07:43:00,
2013-08-30 02:53:00,67.0,62.0,29.73,SSW,200,0.0,2.0,84,0.00,,,0.00,,2013-08-30 07:53:00,
2013-08-30 03:11:00,67.0,62.0,29.73,SSW,200,0.0,0.0,84,0.00,,,0.00,,2013-08-30 08:11:00,
2013-08-30 03:22:00,66.0,61.0,29.73,SSW,200,0.0,0.0,85,0.00,,,0.00,,2013-08-30 08:22:00,
2013-08-30 03:43:00,66.0,61.0,29.73,SSW,200,0.0,0.0,85,0.00,,,0.00,,2013-08-30 08:43:00,
2013-08-30 03:52:00,66.0,61.0,29.73,SSW,200,0.0,0.0,85,0.00,,,0.00,,2013-08-30 08:52:00,
2013-08-30 04:12:00,65.0,61.0,29.73,SSW,200,0.0,1.0,86,0.00,,,0.00,,2013-08-30 09:12:00,
2013-08-30 04:22:00,65.0,61.0,29.73,SSW,200,0.0,1.0,86,0.00,,,0.00,,2013-08-30 09:22:00,
2013-08-30 04:44:00,65.0,61.0,29.73,SSW,200,0.0,0.0,86,0.00,,,0.00,,2013-08-30 09:44:00,
2013-08-30 04:53:00,65.0,61.0,29.73,SSW,200,0.0,0.0,87,0.00,,,0.00,,2013-08-30 09:53:00,
2013-08-30 05:12:00,64.0,60.0,29.73,SSW,200,0.0,0.0,87,0.00,,,0.00,,2013-08-30 10:12:00,
2013-08-30 05:23:00,64.0,60.0,29.73,SSW,200,0.0,0.0,87,0.00,,,0.00,,2013-08-30 10:23:00,
2013-08-30 05:43:00,64.0,60.0,29.73,SSW,200,0.0,0.0,87,0.00,,,0.00,,2013-08-30 10:43:00,
2013-08-30 05:53:00,64.0,60.0,29.73,SSW,200,0.0,1.0,88,0.00,,,0.00,,2013-08-30 10:53:00,
2013-08-30 06:12:00,64.0,60.0,29.73,SSW,200,0.0,0.0,88,0.00,,,0.00,,2013-08-30 11:12:00,
2013-08-30 06:22:00,64.0,60.0,29.73,SSW,200,0.0,0.0,88,0.00,,,0.00,,2013-08-30 11:22:00,
2013-08-30 06:42:00,64.0,61.0,29.74,SSW,200,0.0,0.0,89,0.00,,,0.00,,2013-08-30 11:42:00,
2013-08-30 06:52:00,64.0,61.0,29.74,SSW,200,0.0,0.0,89,0.00,,,0.00,,2013-08-30 11:52:00,
2013-08-30 07:12:00,64.0,61.0,29.74,SSW,200,0.0,0.0,89,0.00,,,0.00,,2013-08-30 12:12:00,
2013-08-30 07:21:00,64.0,61.0,29.75,SSW,200,0.0,0.0,89,0.00,,,0.00,,2013-08-30 12:21:00,
2013-08-30 07:42:00,64.0,61.0,29.75,SSW,200,0.0,0.0,90,0.00,,,0.00,,2013-08-30 12:42:00,
2013-08-30 07:52:00,64.0,61.0,29.75,SSW,201,0.0,0.0,90,0.00,,,0.00,,2013-08-30 12:52:00,
2013-08-30 08:11:00,63.0,60.0,29.76,SSW,202,0.0,2.0,89,0.00,,,0.00,,2013-08-30 13:11:00,
2013-08-30 08:21:00,64.0,61.0,29.76,SSW,202,0.0,0.0,91,0.00,,,0.00,,2013-08-30 13:21:00,
2013-08-30 08:52:00,67.0,64.0,29.77,SSW,202,0.0,0.0,91,0.00,,,0.00,,2013-08-30 13:52:00,
2013-08-30 09:11:00,70.0,67.0,29.78,SSW,202,0.0,0.0,90,0.00,,,0.00,,2013-08-30 14:11:00,
2013-08-30 09:21:00,73.0,68.0,29.78,SSW,201,0.0,2.0,85,0.00,,,0.00,,2013-08-30 14:21:00,
2013-08-30 09:42:00,76.0,69.0,29.78,NW,316,0.0,4.0,78,0.00,,,0.00,,2013-08-30 14:42:00,
2013-08-30 09:52:00,79.0,69.0,29.78,NNW,327,1.0,4.0,71,0.00,,,0.00,,2013-08-30 14:52:00,
2013-08-30 10:11:00,82.0,69.0,29.77,NNW,333,1.0,7.0,66,0.00,,,0.00,,2013-08-30 15:11:00,
2013-08-30 10:22:00,83.0,69.0,29.78,NNW,346,0.0,6.0,63,0.00,,,0.00,,2013-08-30 15:22:00,
2013-08-30 10:43:00,84.0,68.0,29.78,North,10,1.0,7.0,59,0.00,,,0.00,,2013-08-30 15:43:00,
2013-08-30 10:54:00,85.0,68.0,29.78,NE,49,3.0,9.0,56,0.00,,,0.00,,2013-08-30 15:54:00,
2013-08-30 11:13:00,86.0,68.0,29.78,North,5,1.0,6.0,55,0.00,,,0.00,,2013-08-30 16:13:00,
2013-08-30 11:25:00,88.0,68.0,29.78,North,349,2.0,9.0,52,0.00,,,0.00,,2013-08-30 16:25:00,
2013-08-30 11:43:00,88.0,65.0,29.77,North,5,4.0,8.0,47,0.00,,,0.00,,2013-08-30 16:43:00,
2013-08-30 11:53:00,89.0,66.0,29.77,NNE,22,4.0,9.0,47,0.00,,,0.00,,2013-08-30 16:53:00,
2013-08-30 12:13:00,90.0,65.0,29.77,NNW,344,4.0,10.0,44,0.00,,,0.00,,2013-08-30 17:13:00,
2013-08-30 12:23:00,90.0,64.0,29.76,NNW,340,3.0,9.0,43,0.00,,,0.00,,2013-08-30 17:23:00,
2013-08-30 12:42:00,90.0,66.0,29.77,NNW,342,2.0,9.0,45,0.00,,,0.00,,2013-08-30 17:42:00,
2013-08-30 12:53:00,91.0,64.0,29.76,North,5,3.0,11.0,41,0.00,,,0.00,,2013-08-30 17:53:00,
2013-08-30 13:12:00,92.0,65.0,29.76,NW,315,3.0,8.0,41,0.00,,,0.00,,2013-08-30 18:12:00,
2013-08-30 13:22:00,92.0,63.0,29.76,NNW,344,4.0,9.0,39,0.00,,,0.00,,2013-08-30 18:22:00,
2013-08-30 13:42:00,93.0,64.0,29.76,NW,324,3.0,7.0,39,0.00,,,0.00,,2013-08-30 18:42:00,
2013-08-30 13:52:00,94.0,64.0,29.75,NW,323,4.0,11.0,37,0.00,,,0.00,,2013-08-30 18:52:00,
2013-08-30 14:12:00,94.0,63.0,29.75,NNW,345,2.0,8.0,36,0.00,,,0.00,,2013-08-30 19:12:00,
2013-08-30 14:22:00,94.0,62.0,29.75,North,355,4.0,8.0,35,0.00,,,0.00,,2013-08-30 19:22:00,
2013-08-30 14:53:00,96.0,62.0,29.74,North,355,2.0,7.0,33,0.00,,,0.00,,2013-08-30 19:53:00,
2013-08-30 15:11:00,95.0,60.0,29.73,NNE,16,4.0,9.0,31,0.00,,,0.00,,2013-08-30 20:11:00,
2013-08-30 15:22:00,96.0,59.0,29.73,NE,40,4.0,9.0,30,0.00,,,0.00,,2013-08-30 20:22:00,
2013-08-30 15:52:00,97.0,60.0,29.72,North,11,3.0,7.0,30,0.00,,,0.00,,2013-08-30 20:52:00,
2013-08-30 16:11:00,97.0,60.0,29.72,NNE,22,0.0,5.0,30,0.00,,,0.00,,2013-08-30 21:11:00,
2013-08-30 16:22:00,96.0,63.0,29.71,NNE,19,3.0,8.0,34,0.00,,,0.00,,2013-08-30 21:22:00,
2013-08-30 16:54:00,96.0,64.0,29.70,NW,324,0.0,5.0,35,0.00,,,0.00,,2013-08-30 21:54:00,
2013-08-30 17:13:00,96.0,64.0,29.70,NE,46,0.0,9.0,35,0.00,,,0.00,,2013-08-30 22:13:00,
2013-08-30 17:24:00,96.0,64.0,29.69,North,5,2.0,7.0,35,0.00,,,0.00,,2013-08-30 22:24:00,
2013-08-30 17:33:00,96.0,64.0,29.69,North,5,2.0,7.0,35,0.00,,,0.00,,2013-08-30 22:33:00,
2013-08-30 17:54:00,95.0,65.0,29.68,NNE,13,2.0,8.0,37,0.00,,,0.00,,2013-08-30 22:54:00,
2013-08-30 18:12:00,94.0,64.0,29.68,North,360,2.0,8.0,38,0.00,,,0.00,,2013-08-30 23:12:00,
2013-08-30 18:22:00,94.0,64.0,29.67,NW,311,3.0,7.0,38,0.00,,,0.00,,2013-08-30 23:22:00,
2013-08-30 18:53:00,91.0,65.0,29.67,NNE,32,1.0,7.0,42,0.00,,,0.00,,2013-08-30 23:53:00,
2013-08-30 19:11:00,91.0,67.0,29.67,NW,321,1.0,4.0,45,0.00,,,0.00,,2013-08-31 00:11:00,
2013-08-30 19:22:00,90.0,68.0,29.67,North,350,1.0,6.0,48,0.00,,,0.00,,2013-08-31 00:22:00,
2013-08-30 19:42:00,88.0,68.0,29.67,NNW,344,0.0,4.0,51,0.00,,,0.00,,2013-08-31 00:42:00,
2013-08-30 19:52:00,87.0,68.0,29.67,NNE,13,2.0,4.0,53,0.00,,,0.00,,2013-08-31 00:52:00,
2013-08-30 20:11:00,86.0,67.0,29.67,North,355,0.0,5.0,54,0.00,,,0.00,,2013-08-31 01:11:00,
2013-08-30 20:22:00,85.0,68.0,29.67,NW,319,0.0,4.0,56,0.00,,,0.00,,2013-08-31 01:22:00,
2013-08-30 20:42:00,84.0,67.0,29.68,NNE,22,0.0,2.0,57,0.00,,,0.00,,2013-08-31 01:42:00,
2013-08-30 20:52:00,84.0,68.0,29.68,North,9,2.0,5.0,58,0.00,,,0.00,,2013-08-31 01:52:00,
2013-08-30 21:12:00,83.0,68.0,29.68,NE,34,0.0,6.0,61,0.00,,,0.00,,2013-08-31 02:12:00,
2013-08-30 21:22:00,82.0,68.0,29.72,South,169,2.0,6.0,63,0.00,,,0.00,,2013-08-31 02:22:00,
2013-08-30 21:42:00,83.0,69.0,29.75,SSE,155,3.0,9.0,62,0.00,,,0.00,,2013-08-31 02:42:00,
2013-08-30 21:52:00,76.0,65.0,29.78,SSE,161,2.0,17.0,69,0.01,,,0.01,,2013-08-31 02:52:00,
2013-08-30 22:44:00,74.0,64.0,29.78,SSE,163,3.0,9.0,70,0.03,,,0.03,,2013-08-31 03:44:00,
2013-08-30 22:54:00,75.0,64.0,29.77,West,267,3.0,11.0,68,0.01,,,0.03,,2013-08-31 03:54:00,
2013-08-30 23:14:00,73.0,64.0,29.79,SSW,206,2.0,8.0,74,0.02,,,0.04,,2013-08-31 04:14:00,
2013-08-30 23:24:00,71.0,64.0,29.80,South,187,2.0,6.0,79,0.01,,,0.04,,2013-08-31 04:24:00,
2013-08-30 23:44:00,70.0,64.0,29.84,SSW,211,2.0,11.0,81,0.01,,,0.04,,2013-08-31 04:44:00,
2013-08-30 23:54:00,70.0,64.0,29.84,NW,324,5.0,9.0,81,0.01,,,0.04,,2013-08-31 04:54:00,